Time;durP1;ratioP1;P1;durP2;ratioP2;P2;SDS_P1;SDS_P2;PMS_P1;PMS_P2;Temp;Humidity;BMP_temperature;BMP_pressure;BME280_temperature;BME280_humidity;BME280_pressure;Samples;Min_cycle;Max_cycle;Signal;HPM_P1;HPM_P2
2022/09/04 00:00:19;;;;;;;4.72;3.15;;;16.20;97.20;;;;;;5011525;28;20041;-83
2022/09/04 00:03:14;;;;;;;4.78;3.40;;;16.10;96.10;;;;;;4997043;28;20049;-81
2022/09/04 00:05:56;;;;;;;3.95;3.20;;;16.10;96.40;;;;;;5004214;28;20061;-82
2022/09/04 00:08:22;;;;;;;3.97;2.88;;;16.10;97.70;;;;;;4993160;28;20044;-83
2022/09/04 00:10:47;;;;;;;3.45;2.95;;;16.10;97.60;;;;;;5022384;28;20029;-83
2022/09/04 00:13:22;;;;;;;3.67;2.90;;;16.10;97.30;;;;;;5019987;28;20443;-82
2022/09/04 00:16:08;;;;;;;3.78;3.45;;;16.10;97.00;;;;;;5006500;28;20125;-83
2022/09/04 00:18:40;;;;;;;4.22;2.88;;;16.00;97.80;;;;;;5024550;28;20386;-82
2022/09/04 00:21:34;;;;;;;2.90;2.65;;;16.00;97.80;;;;;;4999583;28;20092;-82
2022/09/04 00:24:02;;;;;;;3.55;3.25;;;16.00;99.90;;;;;;5007439;28;20110;-82
2022/09/04 00:26:37;;;;;;;3.25;2.95;;;16.10;99.10;;;;;;4992275;28;20034;-78
2022/09/04 00:29:09;;;;;;;3.28;2.97;;;16.10;97.70;;;;;;5016517;28;20389;-79
2022/09/04 00:31:41;;;;;;;3.25;2.92;;;16.10;98.60;;;;;;5005135;28;20555;-79
2022/09/04 00:34:17;;;;;;;4.68;3.70;;;16.10;99.20;;;;;;5018759;28;20053;-79
2022/09/04 00:36:45;;;;;;;3.38;2.90;;;16.00;96.80;;;;;;5009084;28;20072;-79
2022/09/04 00:39:17;;;;;;;3.33;3.03;;;16.00;97.90;;;;;;4995337;28;20032;-79
2022/09/04 00:41:57;;;;;;;3.38;3.08;;;16.00;97.10;;;;;;5019422;28;20080;-79
2022/09/04 00:44:46;;;;;;;4.57;3.35;;;16.00;96.80;;;;;;5020902;28;20460;-78
2022/09/04 00:47:25;;;;;;;4.15;3.75;;;16.00;97.50;;;;;;5003522;28;20477;-79
2022/09/04 00:50:02;;;;;;;3.65;3.35;;;15.90;97.90;;;;;;5021794;28;20041;-79
2022/09/04 00:52:53;;;;;;;3.75;3.28;;;15.90;99.90;;;;;;5021363;28;20033;-78
2022/09/04 00:55:22;;;;;;;3.47;3.15;;;15.90;99.90;;;;;;5031918;28;20053;-78
2022/09/04 00:58:09;;;;;;;3.80;3.50;;;15.80;99.90;;;;;;5018713;28;20451;-82
2022/09/04 01:00:35;;;;;;;3.67;3.38;;;15.80;99.20;;;;;;5021104;28;20030;-82
2022/09/04 01:03:06;;;;;;;3.63;3.33;;;15.80;98.50;;;;;;5021800;28;20100;-83
2022/09/04 01:05:55;;;;;;;3.72;3.42;;;15.70;98.20;;;;;;5030797;28;20046;-82
2022/09/04 01:08:42;;;;;;;3.53;3.22;;;15.70;99.40;;;;;;5030762;28;20076;-83
2022/09/04 01:11:16;;;;;;;4.07;3.67;;;15.70;98.20;;;;;;5015138;28;20038;-82
2022/09/04 01:13:43;;;;;;;3.55;3.22;;;15.70;98.50;;;;;;5017219;28;20094;-82
2022/09/04 01:16:33;;;;;;;4.30;3.90;;;15.60;99.90;;;;;;5006806;28;20805;-82
2022/09/04 01:19:01;;;;;;;6.40;3.95;;;15.60;99.90;;;;;;5005553;28;20377;-83
2022/09/04 01:22:03;;;;;;;5.35;4.03;;;15.60;99.90;;;;;;5005032;28;20037;-82
2022/09/04 01:25:11;;;;;;;4.55;3.22;;;15.50;99.90;;;;;;5015484;28;20041;-82
2022/09/04 01:27:58;;;;;;;4.18;3.80;;;15.50;99.40;;;;;;4970224;28;20034;-82
2022/09/04 01:30:24;;;;;;;5.70;4.28;;;15.50;99.50;;;;;;4979015;28;20046;-78
2022/09/04 01:33:08;;;;;;;4.55;3.90;;;15.30;99.90;;;;;;4974010;28;20033;-79
2022/09/04 01:35:49;;;;;;;5.60;4.20;;;15.30;99.90;;;;;;5018819;28;20060;-78
2022/09/04 01:38:27;;;;;;;4.18;3.78;;;15.40;99.90;;;;;;5023056;28;20033;-79
2022/09/04 01:41:16;;;;;;;4.68;3.85;;;15.30;99.90;;;;;;5015245;28;20026;-79
2022/09/04 01:43:42;;;;;;;3.70;3.40;;;15.20;99.90;;;;;;5019729;28;20117;-78
2022/09/04 01:46:35;;;;;;;5.07;3.92;;;15.20;99.90;;;;;;5017852;28;20140;-78
2022/09/04 01:49:31;;;;;;;5.40;4.53;;;15.10;99.90;;;;;;5018519;28;20515;-79
2022/09/04 01:52:00;;;;;;;6.03;4.13;;;15.10;99.50;;;;;;5013941;28;20034;-79
2022/09/04 01:55:03;;;;;;;5.50;3.85;;;15.00;99.90;;;;;;5016569;28;20037;-79
2022/09/04 01:57:43;;;;;;;4.43;3.95;;;15.00;99.90;;;;;;5021163;28;20132;-78
2022/09/04 02:00:14;;;;;;;4.35;3.67;;;15.00;99.90;;;;;;5032656;28;20393;-79
2022/09/04 02:02:52;;;;;;;5.82;3.90;;;15.00;99.90;;;;;;4984169;28;22302;-78
2022/09/04 02:05:30;;;;;;;4.63;4.22;;;15.00;99.90;;;;;;5008045;28;20042;-78
2022/09/04 02:08:17;;;;;;;5.03;4.32;;;15.00;99.90;;;;;;5016864;28;20045;-80
2022/09/04 02:11:02;;;;;;;4.82;4.15;;;15.00;99.90;;;;;;5018262;28;20567;-78
2022/09/04 02:13:52;;;;;;;4.43;4.03;;;15.00;99.90;;;;;;5017318;28;20120;-81
2022/09/04 02:16:21;;;;;;;5.32;4.05;;;15.00;99.90;;;;;;5022507;28;20041;-82
2022/09/04 02:18:54;;;;;;;6.22;5.05;;;15.00;99.90;;;;;;5016267;28;20025;-82
2022/09/04 02:21:25;;;;;;;4.38;3.97;;;14.90;99.90;;;;;;5021083;28;20048;-81
2022/09/04 02:24:15;;;;;;;3.90;3.60;;;14.90;99.90;;;;;;5032536;28;20045;-82
2022/09/04 02:26:43;;;;;;;5.22;4.25;;;14.90;99.90;;;;;;5013170;28;20034;-82
2022/09/04 02:29:20;;;;;;;4.72;4.32;;;14.90;99.90;;;;;;5017318;28;20500;-82
2022/09/04 02:31:48;;;;;;;4.63;4.20;;;14.90;99.90;;;;;;5019293;28;20030;-82
2022/09/04 02:34:18;;;;;;;4.40;4.00;;;14.90;99.90;;;;;;5019096;28;20432;-82
2022/09/04 02:36:46;;;;;;;4.80;4.40;;;14.80;99.90;;;;;;5012897;28;20421;-82
2022/09/04 02:39:17;;;;;;;4.60;4.20;;;14.70;99.90;;;;;;5018383;28;20034;-82
2022/09/04 02:41:53;;;;;;;6.10;3.97;;;14.70;99.90;;;;;;5020140;28;20026;-82
2022/09/04 02:44:40;;;;;;;4.13;3.72;;;14.70;99.90;;;;;;5018276;28;20095;-82
2022/09/04 02:47:25;;;;;;;3.97;3.67;;;14.60;99.90;;;;;;5020939;28;20065;-82
2022/09/04 02:50:17;;;;;;;4.80;4.30;;;14.60;99.90;;;;;;5004908;28;20064;-81
2022/09/04 02:53:31;;;;;;;5.63;4.35;;;14.60;99.90;;;;;;5017920;28;20092;-82
2022/09/04 02:56:09;;;;;;;4.63;4.22;;;14.60;99.90;;;;;;4956777;28;20691;-81
2022/09/04 02:59:05;;;;;;;4.60;4.20;;;14.70;99.90;;;;;;5016218;28;20034;-82
2022/09/04 03:01:42;;;;;;;6.32;4.30;;;14.60;99.90;;;;;;5017589;28;20037;-82
2022/09/04 03:04:10;;;;;;;4.53;4.15;;;14.50;99.90;;;;;;5009835;28;20033;-81
2022/09/04 03:06:47;;;;;;;6.43;5.07;;;14.50;99.90;;;;;;5006235;28;20056;-82
2022/09/04 03:09:20;;;;;;;4.57;3.95;;;14.50;99.90;;;;;;5010004;28;20033;-81
2022/09/04 03:11:56;;;;;;;6.18;4.50;;;14.40;99.90;;;;;;5016790;28;20053;-82
2022/09/04 03:14:50;;;;;;;4.43;4.03;;;14.40;99.90;;;;;;5018464;28;20034;-82
2022/09/04 03:17:29;;;;;;;7.78;4.72;;;14.40;99.90;;;;;;5021322;28;20030;-81
2022/09/04 03:20:31;;;;;;;5.57;4.05;;;14.40;99.90;;;;;;5015490;28;20037;-81
2022/09/04 03:23:08;;;;;;;5.25;4.68;;;14.40;99.90;;;;;;4972218;28;20178;-80
2022/09/04 03:26:00;;;;;;;4.78;4.38;;;14.40;99.90;;;;;;5015278;28;20064;-81
2022/09/04 03:28:50;;;;;;;4.50;4.10;;;14.30;99.90;;;;;;5014305;28;20155;-80
2022/09/04 03:31:30;;;;;;;4.85;4.45;;;14.40;99.90;;;;;;5017252;28;20037;-82
2022/09/04 03:34:14;;;;;;;4.97;4.38;;;14.40;99.90;;;;;;5008491;28;20045;-80
2022/09/04 03:36:59;;;;;;;5.00;4.28;;;14.30;99.90;;;;;;5004321;28;20074;-81
2022/09/04 03:39:49;;;;;;;5.80;4.13;;;14.20;99.90;;;;;;5016494;28;20072;-81
2022/09/04 03:42:51;;;;;;;5.18;4.65;;;14.20;99.90;;;;;;5020089;28;20093;-81
2022/09/04 03:45:36;;;;;;;5.13;4.03;;;14.30;99.90;;;;;;5024912;28;20083;-81
2022/09/04 03:48:40;;;;;;;7.28;4.85;;;14.30;99.90;;;;;;5021320;28;20076;-81
2022/09/04 03:51:24;;;;;;;5.60;4.65;;;14.30;99.90;;;;;;5023327;28;20091;-82
2022/09/04 03:54:29;;;;;;;6.45;5.05;;;14.30;99.90;;;;;;5006403;28;20033;-81
2022/09/04 03:57:07;;;;;;;8.50;4.10;;;14.30;99.90;;;;;;5019579;28;20029;-81
2022/09/04 04:00:17;;;;;;;5.07;4.40;;;14.30;99.90;;;;;;5021946;28;20595;-82
2022/09/04 04:03:14;;;;;;;7.40;4.57;;;14.20;99.90;;;;;;5009125;28;20034;-81
2022/09/04 04:06:01;;;;;;;5.50;5.00;;;14.10;99.90;;;;;;5033207;28;20116;-81
2022/09/04 04:08:47;;;;;;;6.00;4.82;;;14.20;99.90;;;;;;5003155;28;20122;-81
2022/09/04 04:11:15;;;;;;;;;;;14.20;99.90;;;;;;5026045;28;20038;-81
2022/09/04 04:14:11;;;;;;;5.47;5.05;;;14.20;99.90;;;;;;5022734;28;19932;-81
2022/09/04 04:16:45;;;;;;;5.30;4.70;;;14.20;99.90;;;;;;5023109;28;20374;-82
2022/09/04 04:19:39;;;;;;;7.40;5.18;;;14.20;99.90;;;;;;5019394;28;20025;-81
2022/09/04 04:22:16;;;;;;;5.65;5.15;;;14.10;99.90;;;;;;5022258;28;20037;-81
2022/09/04 04:24:46;;;;;;;5.47;4.97;;;14.20;99.90;;;;;;5016864;28;20126;-82
2022/09/04 04:27:35;;;;;;;5.88;5.07;;;14.10;99.90;;;;;;5020279;28;20104;-81
2022/09/04 04:30:00;;;;;;;5.10;4.28;;;14.00;99.90;;;;;;5022148;28;20456;-81
2022/09/04 04:32:52;;;;;;;5.38;4.88;;;14.00;99.90;;;;;;5018869;28;20153;-81
2022/09/04 04:35:56;;;;;;;5.25;4.75;;;14.00;99.90;;;;;;4993024;28;20033;-81
2022/09/04 04:38:33;;;;;;;6.22;5.00;;;14.00;99.90;;;;;;5017926;28;20394;-80
2022/09/04 04:41:23;;;;;;;6.18;4.75;;;14.10;99.90;;;;;;5020779;28;20073;-81
2022/09/04 04:44:16;;;;;;;6.35;5.18;;;14.10;99.90;;;;;;5014999;28;20075;-81
2022/09/04 04:47:06;;;;;;;4.70;4.30;;;14.10;99.90;;;;;;5016361;28;20120;-80
2022/09/04 04:49:50;;;;;;;6.45;5.38;;;14.10;99.90;;;;;;4989362;28;20128;-81
2022/09/04 04:52:39;;;;;;;7.38;5.00;;;14.00;99.90;;;;;;5018798;28;20033;-81
2022/09/04 04:55:20;;;;;;;5.80;5.30;;;14.00;99.90;;;;;;5003222;28;20033;-80
2022/09/04 04:58:04;;;;;;;6.18;4.90;;;14.00;99.90;;;;;;5003837;28;20037;-80
2022/09/04 05:00:51;;;;;;;8.05;4.45;;;14.00;99.90;;;;;;5018644;28;20121;-79
2022/09/04 05:03:53;;;;;;;5.40;4.90;;;13.90;99.90;;;;;;5020598;28;20040;-81
2022/09/04 05:06:37;;;;;;;6.25;5.05;;;14.00;99.90;;;;;;5018023;28;20043;-80
2022/09/04 05:09:15;;;;;;;6.18;4.75;;;14.00;99.90;;;;;;5019172;28;20032;-80
2022/09/04 05:11:59;;;;;;;5.80;5.18;;;14.00;99.90;;;;;;5017513;28;20037;-81
2022/09/04 05:14:53;;;;;;;6.30;5.70;;;14.00;99.90;;;;;;5018325;28;20115;-80
2022/09/04 05:17:39;;;;;;;6.32;5.72;;;14.00;99.90;;;;;;5006717;28;20455;-80
2022/09/04 05:20:21;;;;;;;7.40;6.25;;;14.00;99.90;;;;;;5001804;28;20026;-80
2022/09/04 05:22:55;;;;;;;6.72;5.53;;;14.00;99.90;;;;;;5023603;28;20041;-81
2022/09/04 05:25:34;;;;;;;7.32;5.95;;;14.00;99.90;;;;;;5022012;28;20025;-81
2022/09/04 05:28:37;;;;;;;6.95;6.32;;;14.10;99.90;;;;;;5017439;28;20515;-81
2022/09/04 05:31:40;;;;;;;6.55;5.95;;;14.00;99.90;;;;;;5022080;28;20033;-81
2022/09/04 05:34:11;;;;;;;8.15;7.35;;;14.20;99.90;;;;;;4967305;28;20044;-81
2022/09/04 05:37:12;;;;;;;8.95;7.65;;;14.20;99.90;;;;;;5019238;28;20037;-81
2022/09/04 05:39:59;;;;;;;8.15;7.35;;;14.30;99.90;;;;;;5014294;28;20421;-81
2022/09/04 05:42:47;;;;;;;8.77;7.10;;;14.30;99.90;;;;;;5033903;28;20119;-81
2022/09/04 05:45:43;;;;;;;7.75;6.97;;;14.40;99.90;;;;;;5016470;28;20029;-81
2022/09/04 05:48:17;;;;;;;7.90;7.10;;;14.50;99.90;;;;;;5024343;28;20489;-81
2022/09/04 05:51:07;;;;;;;8.40;7.60;;;14.60;99.90;;;;;;5016621;28;20567;-81
2022/09/04 05:53:54;;;;;;;7.60;6.93;;;14.60;99.90;;;;;;5021005;28;20108;-81
2022/09/04 05:56:26;;;;;;;8.82;6.97;;;14.70;99.90;;;;;;5018438;28;20110;-81
2022/09/04 05:59:13;;;;;;;8.43;7.63;;;14.80;99.90;;;;;;5016199;28;20038;-81
2022/09/04 06:02:07;;;;;;;10.45;7.38;;;14.90;99.90;;;;;;5016839;28;20826;-80
2022/09/04 06:04:48;;;;;;;7.78;7.00;;;15.00;99.90;;;;;;5014070;28;20068;-81
2022/09/04 06:07:39;;;;;;;7.45;6.65;;;15.10;99.90;;;;;;5023311;28;20038;-81
2022/09/04 06:10:26;;;;;;;7.53;6.82;;;15.20;99.90;;;;;;5017092;28;20127;-81
2022/09/04 06:13:29;;;;;;;6.93;6.20;;;15.40;99.90;;;;;;5006680;28;20045;-81
2022/09/04 06:16:39;;;;;;;8.70;7.03;;;15.50;99.90;;;;;;5023523;28;20033;-82
2022/09/04 06:19:25;;;;;;;6.63;5.97;;;15.60;99.90;;;;;;4999413;28;20130;-82
2022/09/04 06:22:06;;;;;;;7.28;5.10;;;15.80;99.90;;;;;;5001165;28;20068;-82
2022/09/04 06:24:50;;;;;;;6.97;5.72;;;15.90;99.90;;;;;;5032157;28;20036;-82
2022/09/04 06:27:54;;;;;;;4.60;4.20;;;16.10;99.90;;;;;;5033478;28;20036;-83
2022/09/04 06:30:20;;;;;;;5.70;4.20;;;16.30;99.90;;;;;;5006010;28;20478;-82
2022/09/04 06:33:04;;;;;;;5.25;4.72;;;16.40;99.90;;;;;;5012940;28;20026;-82
2022/09/04 06:36:01;;;;;;;5.68;5.18;;;16.60;99.90;;;;;;5016957;28;20033;-82
2022/09/04 06:39:03;;;;;;;5.82;3.75;;;16.70;99.90;;;;;;5021408;28;20044;-81
2022/09/04 06:41:38;;;;;;;3.72;3.42;;;16.80;99.90;;;;;;5019733;28;20837;-82
2022/09/04 06:44:21;;;;;;;2.97;2.45;;;16.90;99.90;;;;;;5022018;28;20647;-82
2022/09/04 06:47:09;;;;;;;4.55;4.13;;;17.00;99.90;;;;;;5026004;28;20049;-83
2022/09/04 06:49:38;;;;;;;5.00;4.55;;;17.20;99.90;;;;;;5011256;28;20033;-82
2022/09/04 06:52:27;;;;;;;4.53;3.50;;;17.30;99.90;;;;;;5019914;28;20030;-82
2022/09/04 06:55:17;;;;;;;5.22;3.67;;;17.40;99.90;;;;;;5021719;28;20030;-81
2022/09/04 06:58:01;;;;;;;3.50;3.22;;;17.60;99.90;;;;;;5024671;28;20133;-82
2022/09/04 07:00:29;;;;;;;3.60;3.30;;;17.80;99.90;;;;;;5034524;28;20029;-83
2022/09/04 07:03:17;;;;;;;3.05;2.67;;;18.10;99.90;;;;;;5022973;28;20762;-82
2022/09/04 07:06:08;;;;;;;3.65;2.83;;;18.20;99.90;;;;;;5020158;28;20899;-82
2022/09/04 07:08:53;;;;;;;3.97;2.50;;;18.30;99.90;;;;;;5007952;28;20570;-83
2022/09/04 07:11:28;;;;;;;2.97;2.42;;;18.50;99.90;;;;;;5011222;28;20116;-83
2022/09/04 07:14:15;;;;;;;3.15;2.28;;;18.60;99.90;;;;;;5036808;28;20065;-82
2022/09/04 07:17:02;;;;;;;3.05;2.80;;;18.70;99.90;;;;;;5018033;28;20029;-83
2022/09/04 07:19:40;;;;;;;3.45;2.42;;;18.80;99.90;;;;;;5020390;28;20029;-82
2022/09/04 07:22:24;;;;;;;3.72;3.35;;;19.10;99.90;;;;;;5020493;28;20034;-81
2022/09/04 07:24:55;;;;;;;2.92;2.50;;;19.30;99.90;;;;;;5022053;28;20129;-81
2022/09/04 07:27:45;;;;;;;3.38;3.08;;;19.50;99.90;;;;;;5026901;28;20045;-82
2022/09/04 07:30:14;;;;;;;2.97;2.70;;;19.60;99.90;;;;;;5008096;28;20539;-82
2022/09/04 07:33:12;;;;;;;5.82;3.20;;;19.70;99.90;;;;;;5007404;28;20412;-81
2022/09/04 07:35:57;;;;;;;3.00;2.80;;;19.90;99.90;;;;;;5006646;28;20037;-84
2022/09/04 07:38:47;;;;;;;3.92;3.15;;;19.90;99.90;;;;;;5021661;28;20098;-83
2022/09/04 07:41:27;;;;;;;3.40;3.00;;;20.10;99.90;;;;;;5018586;28;20121;-82
2022/09/04 07:44:11;;;;;;;2.75;2.30;;;20.20;99.90;;;;;;5020536;28;20040;-83
2022/09/04 07:47:04;;;;;;;2.47;2.28;;;20.30;99.00;;;;;;5023869;28;20061;-80
2022/09/04 07:49:42;;;;;;;3.22;3.03;;;20.40;99.90;;;;;;5022076;28;20515;-82
2022/09/04 07:52:43;;;;;;;3.40;3.10;;;20.60;99.90;;;;;;5008065;28;20037;-82
2022/09/04 07:55:37;;;;;;;2.78;2.58;;;20.70;99.90;;;;;;4964808;28;20119;-82
2022/09/04 07:58:24;;;;;;;2.25;2.05;;;20.70;99.90;;;;;;5008791;28;20489;-81
2022/09/04 08:01:02;;;;;;;3.63;2.38;;;21.30;99.80;;;;;;5023027;28;20040;-78
2022/09/04 08:03:44;;;;;;;2.35;2.15;;;21.30;99.90;;;;;;5020069;28;20038;-77
2022/09/04 08:06:23;;;;;;;3.85;2.88;;;21.50;98.20;;;;;;5010174;28;20037;-79
2022/09/04 08:09:08;;;;;;;3.65;2.83;;;21.50;99.80;;;;;;5036317;28;20414;-78
2022/09/04 08:11:57;;;;;;;5.82;2.80;;;21.40;99.90;;;;;;5006846;28;20064;-79
2022/09/04 08:14:37;;;;;;;2.30;2.10;;;21.50;99.90;;;;;;5007512;28;20033;-77
2022/09/04 08:17:41;;;;;;;3.78;2.45;;;21.50;99.90;;;;;;5031040;28;20470;-77
2022/09/04 08:20:10;;;;;;;2.72;1.90;;;21.60;99.90;;;;;;4990986;28;20044;-77
2022/09/04 08:23:00;;;;;;;2.28;1.95;;;22.00;99.90;;;;;;5021434;28;20034;-77
2022/09/04 08:25:55;;;;;;;3.45;2.15;;;22.70;99.20;;;;;;5021414;28;20512;-78
2022/09/04 08:28:33;;;;;;;2.50;2.30;;;22.70;99.90;;;;;;5013020;28;20056;-78
2022/09/04 08:31:10;;;;;;;1.92;1.83;;;22.50;99.90;;;;;;5018067;28;20041;-78
2022/09/04 08:33:58;;;;;;;3.63;1.70;;;22.80;98.20;;;;;;5004352;28;20041;-77
2022/09/04 08:36:38;;;;;;;2.83;2.22;;;23.30;99.10;;;;;;5036503;28;20041;-78
2022/09/04 08:39:14;;;;;;;2.28;1.90;;;22.90;99.40;;;;;;5011081;28;20037;-78
2022/09/04 08:41:58;;;;;;;;;;;23.10;99.90;;;;;;5022973;28;20337;-78
2022/09/04 08:45:02;;;;;;;2.90;2.53;;;23.10;98.60;;;;;;5021427;28;19916;-78
2022/09/04 08:47:51;;;;;;;3.78;2.10;;;23.30;99.50;;;;;;4994034;28;20045;-78
2022/09/04 08:50:50;;;;;;;3.83;1.70;;;23.40;99.70;;;;;;5031796;28;20108;-77
2022/09/04 08:53:34;;;;;;;3.05;1.60;;;23.50;98.50;;;;;;4996019;28;20069;-78
2022/09/04 08:56:19;;;;;;;2.63;1.75;;;23.50;98.00;;;;;;5005552;28;20041;-78
2022/09/04 08:58:51;;;;;;;1.50;1.40;;;23.50;98.30;;;;;;5019428;28;20494;-79
2022/09/04 09:01:41;;;;;;;5.53;1.65;;;24.30;97.20;;;;;;5031966;28;20876;-79
2022/09/04 09:04:16;;;;;;;6.05;1.85;;;24.70;96.60;;;;;;5007682;28;20068;-80
2022/09/04 09:07:03;;;;;;;3.92;1.92;;;25.60;94.80;;;;;;5018601;28;20721;-80
2022/09/04 09:09:59;;;;;;;1.40;1.30;;;25.00;95.70;;;;;;5019731;28;20117;-80
2022/09/04 09:12:58;;;;;;;3.33;1.73;;;25.60;94.30;;;;;;5021469;28;20037;-80
2022/09/04 09:15:45;;;;;;;2.65;1.75;;;25.60;94.10;;;;;;5015163;28;20044;-80
2022/09/04 09:18:21;;;;;;;2.22;1.48;;;26.30;92.90;;;;;;5033489;28;20440;-79
2022/09/04 09:21:09;;;;;;;1.90;1.30;;;26.70;91.80;;;;;;5017785;28;20034;-80
2022/09/04 09:23:52;;;;;;;1.98;1.77;;;26.30;92.00;;;;;;4999321;28;20034;-80
2022/09/04 09:26:37;;;;;;;1.80;1.70;;;27.10;89.80;;;;;;5018371;28;20037;-80
2022/09/04 09:29:23;;;;;;;1.90;1.75;;;26.50;91.10;;;;;;4991963;28;20096;-80
2022/09/04 09:32:04;;;;;;;5.95;1.75;;;26.50;91.20;;;;;;5020714;28;20033;-80
2022/09/04 09:34:29;;;;;;;2.58;1.85;;;27.30;89.50;;;;;;5016275;28;20056;-80
2022/09/04 09:37:06;;;;;;;4.13;1.38;;;27.60;86.50;;;;;;5031410;28;20045;-79
2022/09/04 09:39:56;;;;;;;4.10;1.40;;;27.70;85.90;;;;;;5013187;28;20017;-79
2022/09/04 09:42:25;;;;;;;7.38;2.08;;;27.10;86.70;;;;;;5032847;28;20072;-81
2022/09/04 09:45:12;;;;;;;1.50;1.40;;;26.90;87.70;;;;;;5019368;28;20515;-81
2022/09/04 09:47:37;;;;;;;1.77;1.48;;;27.40;86.30;;;;;;5018395;28;20398;-80
2022/09/04 09:50:40;;;;;;;1.92;1.60;;;28.00;82.40;;;;;;5031445;28;20038;-81
2022/09/04 09:53:25;;;;;;;4.05;2.20;;;28.00;83.40;;;;;;5022571;28;20083;-81
2022/09/04 09:56:13;;;;;;;1.65;1.35;;;27.20;87.60;;;;;;5021919;28;20370;-81
2022/09/04 09:58:49;;;;;;;2.08;1.60;;;27.00;88.20;;;;;;5003642;28;20423;-81
2022/09/04 10:01:24;;;;;;;1.73;1.30;;;28.10;84.80;;;;;;5019787;28;20044;-82
2022/09/04 10:04:20;;;;;;;2.00;1.88;;;28.00;84.50;;;;;;5028243;28;20034;-80
2022/09/04 10:07:20;;;;;;;1.23;1.13;;;27.60;86.90;;;;;;5020307;28;20034;-82
2022/09/04 10:09:54;;;;;;;2.78;1.95;;;27.30;88.10;;;;;;5016338;28;20061;-83
2022/09/04 10:12:57;;;;;;;1.98;1.42;;;27.10;88.70;;;;;;5014384;28;20031;-83
2022/09/04 10:15:36;;;;;;;2.22;1.20;;;28.40;83.20;;;;;;5021022;28;20056;-82
2022/09/04 10:18:35;;;;;;;2.38;1.52;;;28.10;85.20;;;;;;5026800;28;20030;-82
2022/09/04 10:21:37;;;;;;;6.00;1.70;;;28.90;79.70;;;;;;5025858;28;20033;-80
2022/09/04 10:24:14;;;;;;;1.48;1.38;;;28.40;83.40;;;;;;5021654;28;20071;-81
2022/09/04 10:27:08;;;;;;;1.65;1.48;;;28.00;84.70;;;;;;5009433;28;20025;-81
2022/09/04 10:29:44;;;;;;;1.35;1.25;;;27.50;87.90;;;;;;5012528;28;20147;-81
2022/09/04 10:32:18;;;;;;;2.13;1.40;;;27.70;85.80;;;;;;5024165;28;20021;-82
2022/09/04 10:35:06;;;;;;;1.98;1.30;;;29.20;80.20;;;;;;5022774;28;20085;-80
2022/09/04 10:38:10;;;;;;;1.85;1.65;;;29.10;81.20;;;;;;5038717;28;20030;-81
2022/09/04 10:40:52;;;;;;;1.50;1.40;;;28.40;85.00;;;;;;5005034;28;20044;-82
2022/09/04 10:43:48;;;;;;;1.83;1.70;;;28.70;82.20;;;;;;5010949;28;20037;-81
2022/09/04 10:46:34;;;;;;;1.63;1.40;;;28.40;83.80;;;;;;5021733;28;20400;-81
2022/09/04 10:49:03;;;;;;;;;;;28.20;86.20;;;;;;5021353;28;20026;-81
2022/09/04 10:52:05;;;;;;;1.30;1.10;;;28.30;83.70;;;;;;5026047;28;19963;-82
2022/09/04 10:54:53;;;;;;;1.90;1.80;;;29.90;75.80;;;;;;5018393;28;20419;-81
2022/09/04 10:57:46;;;;;;;1.40;1.30;;;29.20;81.40;;;;;;5026966;28;20033;-80
2022/09/04 11:00:17;;;;;;;2.28;1.30;;;28.80;80.70;;;;;;5020189;28;20033;-81
2022/09/04 11:02:45;;;;;;;1.50;1.40;;;29.50;78.00;;;;;;5037050;28;20030;-81
2022/09/04 11:05:48;;;;;;;4.32;2.10;;;30.10;75.80;;;;;;5035107;28;20061;-80
2022/09/04 11:08:44;;;;;;;3.95;1.85;;;31.50;68.80;;;;;;5029305;28;20041;-81
2022/09/04 11:11:25;;;;;;;2.20;1.40;;;30.40;73.20;;;;;;5035347;28;20033;-80
2022/09/04 11:13:55;;;;;;;2.55;1.10;;;31.50;68.80;;;;;;5028656;28;20431;-81
2022/09/04 11:16:41;;;;;;;2.58;1.73;;;31.00;70.80;;;;;;5029319;28;20040;-80
2022/09/04 11:19:32;;;;;;;1.70;1.60;;;31.90;66.50;;;;;;5027128;28;20053;-80
2022/09/04 11:21:58;;;;;;;1.73;1.63;;;31.50;68.50;;;;;;5025358;28;20435;-80
2022/09/04 11:24:27;;;;;;;2.83;1.40;;;31.20;69.80;;;;;;5025612;28;20037;-80
2022/09/04 11:27:14;;;;;;;1.63;1.52;;;31.10;69.10;;;;;;5022448;28;20038;-80
2022/09/04 11:29:54;;;;;;;3.83;1.40;;;30.70;72.90;;;;;;5022097;28;20120;-81
2022/09/04 11:32:35;;;;;;;1.60;1.45;;;30.70;71.90;;;;;;5023046;28;20025;-81
2022/09/04 11:35:25;;;;;;;2.67;1.70;;;32.20;66.00;;;;;;5022184;28;20030;-81
2022/09/04 11:38:24;;;;;;;2.85;1.77;;;30.80;72.20;;;;;;5024210;28;20029;-81
2022/09/04 11:41:08;;;;;;;3.58;1.50;;;31.70;67.60;;;;;;5018683;28;20033;-81
2022/09/04 11:44:10;;;;;;;2.72;1.55;;;33.30;61.20;;;;;;5020684;28;20513;-80
2022/09/04 11:46:58;;;;;;;2.88;2.05;;;32.20;64.70;;;;;;5018842;28;20084;-81
2022/09/04 11:49:51;;;;;;;2.20;1.70;;;32.10;68.40;;;;;;5020373;28;20424;-82
2022/09/04 11:52:39;;;;;;;1.58;1.40;;;31.80;68.10;;;;;;5023073;28;20044;-81
2022/09/04 11:55:23;;;;;;;2.45;1.80;;;32.20;64.20;;;;;;5017653;28;20481;-80
2022/09/04 11:57:56;;;;;;;3.40;1.80;;;32.70;62.90;;;;;;5021036;28;20029;-80
2022/09/04 12:00:21;;;;;;;1.73;1.50;;;33.20;62.60;;;;;;5022228;28;20171;-80
2022/09/04 12:02:55;;;;;;;1.40;1.20;;;32.70;65.50;;;;;;5018844;28;20131;-80
2022/09/04 12:05:49;;;;;;;1.83;1.45;;;33.10;61.90;;;;;;5020295;28;20037;-79
2022/09/04 12:08:21;;;;;;;2.63;1.35;;;32.10;66.70;;;;;;5009686;28;20033;-79
2022/09/04 12:11:08;;;;;;;1.88;1.77;;;32.40;63.50;;;;;;5022280;28;20144;-79
2022/09/04 12:13:42;;;;;;;1.30;1.20;;;32.50;66.20;;;;;;5017135;28;20505;-78
2022/09/04 12:16:31;;;;;;;1.83;1.40;;;32.70;61.90;;;;;;5038642;28;20515;-78
2022/09/04 12:19:12;;;;;;;1.50;1.40;;;32.90;61.50;;;;;;5023826;28;20033;-78
2022/09/04 12:21:52;;;;;;;1.73;1.50;;;32.20;64.10;;;;;;5036899;28;20120;-78
2022/09/04 12:24:55;;;;;;;2.38;1.50;;;32.00;64.90;;;;;;5025510;28;20038;-79
2022/09/04 12:27:26;;;;;;;2.58;1.45;;;32.00;63.40;;;;;;5036792;28;20029;-79
2022/09/04 12:30:03;;;;;;;3.22;2.38;;;32.90;61.70;;;;;;5024467;28;20062;-78
2022/09/04 12:33:04;;;;;;;3.67;1.50;;;32.10;62.90;;;;;;5019276;28;20108;-79
2022/09/04 12:35:49;;;;;;;1.63;1.52;;;33.60;57.60;;;;;;5018294;28;20155;-78
2022/09/04 12:38:48;;;;;;;1.53;1.43;;;33.70;57.60;;;;;;5021816;28;20113;-78
2022/09/04 12:41:17;;;;;;;4.72;1.50;;;33.30;59.50;;;;;;5020717;28;20429;-78
2022/09/04 12:43:53;;;;;;;3.70;1.42;;;33.40;57.90;;;;;;5035266;28;20034;-78
2022/09/04 12:46:34;;;;;;;1.65;1.50;;;33.10;60.10;;;;;;5021561;28;20485;-78
2022/09/04 12:49:24;;;;;;;3.40;1.58;;;32.80;62.90;;;;;;5018391;28;20030;-79
2022/09/04 12:52:27;;;;;;;1.77;1.67;;;32.30;62.70;;;;;;5023606;28;20515;-78
2022/09/04 12:55:24;;;;;;;5.72;2.10;;;32.20;63.30;;;;;;5018936;28;20033;-80
2022/09/04 12:57:54;;;;;;;2.45;1.67;;;31.80;62.80;;;;;;5005876;28;20033;-80
2022/09/04 13:00:21;;;;;;;1.70;1.50;;;31.80;64.10;;;;;;5023247;28;20038;-79
2022/09/04 13:02:49;;;;;;;4.75;1.83;;;32.20;61.90;;;;;;5017178;28;20026;-80
2022/09/04 13:05:41;;;;;;;3.35;2.20;;;32.50;62.40;;;;;;5020766;28;20515;-79
2022/09/04 13:08:21;;;;;;;2.05;1.73;;;32.90;60.50;;;;;;5019077;28;20115;-79
2022/09/04 13:10:53;;;;;;;1.77;1.67;;;32.50;62.10;;;;;;5005362;28;20045;-80
2022/09/04 13:13:27;;;;;;;2.05;1.52;;;33.10;57.60;;;;;;5019541;28;20513;-79
2022/09/04 13:16:15;;;;;;;1.93;1.60;;;32.90;61.40;;;;;;5003523;28;20033;-79
2022/09/04 13:19:21;;;;;;;2.13;1.90;;;32.90;58.80;;;;;;5016448;28;20401;-79
2022/09/04 13:22:05;;;;;;;3.57;2.40;;;32.50;62.20;;;;;;5018969;28;21051;-80
2022/09/04 13:24:40;;;;;;;2.88;1.98;;;32.40;63.40;;;;;;5021506;28;20033;-81
2022/09/04 13:27:20;;;;;;;3.30;1.63;;;32.40;62.80;;;;;;5020439;28;20033;-80
2022/09/04 13:29:58;;;;;;;2.67;1.35;;;32.50;63.00;;;;;;5018148;28;20029;-80
2022/09/04 13:32:33;;;;;;;2.78;1.98;;;33.20;59.40;;;;;;5024242;28;20485;-79
2022/09/04 13:35:41;;;;;;;2.22;1.70;;;33.10;60.70;;;;;;5007808;28;20053;-78
2022/09/04 13:38:30;;;;;;;2.95;1.55;;;32.90;62.20;;;;;;5017356;28;20037;-79
2022/09/04 13:41:05;;;;;;;2.42;1.20;;;33.10;61.20;;;;;;5019541;28;20044;-80
2022/09/04 13:43:51;;;;;;;1.58;1.48;;;33.60;58.70;;;;;;5023401;28;20546;-78
2022/09/04 13:46:19;;;;;;;2.78;1.67;;;34.30;57.10;;;;;;5017054;28;20454;-78
2022/09/04 13:48:45;;;;;;;1.80;1.45;;;34.00;56.10;;;;;;5015060;28;20413;-79
2022/09/04 13:51:28;;;;;;;1.65;1.55;;;33.90;57.50;;;;;;5017266;28;20048;-79
2022/09/04 13:54:15;;;;;;;2.53;1.63;;;33.40;57.70;;;;;;5005548;28;20108;-79
2022/09/04 13:56:48;;;;;;;1.50;1.40;;;33.30;58.00;;;;;;5018113;28;20036;-79
2022/09/04 13:59:15;;;;;;;1.50;1.27;;;33.10;59.00;;;;;;5007997;28;20515;-79
2022/09/04 14:01:44;;;;;;;1.58;1.48;;;33.60;57.10;;;;;;5030733;28;20049;-79
2022/09/04 14:04:33;;;;;;;1.98;1.48;;;33.70;57.00;;;;;;5008209;28;20448;-78
2022/09/04 14:07:04;;;;;;;1.30;1.20;;;33.50;57.40;;;;;;5017860;28;20226;-78
2022/09/04 14:09:30;;;;;;;1.60;1.50;;;33.50;56.50;;;;;;5015488;28;20032;-78
2022/09/04 14:12:09;;;;;;;3.13;1.45;;;33.80;56.20;;;;;;5016578;28;20381;-78